Time;durP1;ratioP1;P1;durP2;ratioP2;P2;SDS_P1;SDS_P2;PMS_P1;PMS_P2;Temp;Humidity;BMP_temperature;BMP_pressure;BME280_temperature;BME280_humidity;BME280_pressure;Samples;Min_cycle;Max_cycle;Signal;HPM_P1;HPM_P2
2021/08/11 00:02:19;;;;;;;;;;;;;;;;;;5046037;28;19944;-72
2021/08/11 00:04:46;;;;;;;;;;;;;;;;;;5043513;28;19924;-72
2021/08/11 00:07:13;;;;;;;;;;;;;;;;;;5047339;28;20321;-72
2021/08/11 00:09:40;;;;;;;;;;;;;;;;;;5040898;28;20549;-72
2021/08/11 00:12:07;;;;;;;;;;;;;;;;;;5044932;28;20297;-73
2021/08/11 00:14:34;;;;;;;;;;;;;;;;;;5046638;28;19960;-72
2021/08/11 00:17:01;;;;;;;;;;;;;;;;;;5044480;28;19924;-72
2021/08/11 00:19:28;;;;;;;;;;;;;;;;;;5043298;28;19925;-72
2021/08/11 00:21:55;;;;;;;;;;;;;;;;;;5043377;28;19931;-72
2021/08/11 00:24:22;;;;;;;;;;;;;;;;;;5042788;28;19932;-72
2021/08/11 00:26:49;;;;;;;;;;;;;;;;;;5047384;28;19932;-72
2021/08/11 00:29:16;;;;;;;;;;;;;;;;;;5042787;28;19924;-72
2021/08/11 00:31:43;;;;;;;;;;;;;;;;;;5048930;28;19944;-72
2021/08/11 00:34:10;;;;;;;;;;;;;;;;;;5042106;28;19960;-72
2021/08/11 00:36:37;;;;;;;;;;;;;;;;;;5049802;28;19932;-73
2021/08/11 00:39:04;;;;;;;;;;;;;;;;;;5043427;28;19932;-72
2021/08/11 00:41:31;;;;;;;;;;;;;;;;;;5046963;28;20286;-72
2021/08/11 00:43:58;;;;;;;;;;;;;;;;;;5048772;28;19925;-72
2021/08/11 00:46:25;;;;;;;;;;;;;;;;;;5049919;28;19940;-71
2021/08/11 00:48:52;;;;;;;;;;;;;;;;;;5047132;28;19931;-71
2021/08/11 00:51:18;;;;;;;;;;;;;;;;;;5046771;28;19929;-71
2021/08/11 00:53:45;;;;;;;;;;;;;;;;;;5051960;28;19933;-72
2021/08/11 00:56:12;;;;;;;;;;;;;;;;;;5046550;28;20334;-72
2021/08/11 00:58:39;;;;;;;;;;;;;;;;;;5044251;28;19925;-73
2021/08/11 01:01:07;;;;;;;;;;;;;;;;;;5045374;28;19931;-72
2021/08/11 01:03:34;;;;;;;;;;;;;;;;;;5054100;28;19925;-71
2021/08/11 01:06:01;;;;;;;;;;;;;;;;;;5053959;28;20308;-72
2021/08/11 01:08:28;;;;;;;;;;;;;;;;;;5048970;28;19939;-73
2021/08/11 01:10:55;;;;;;;;;;;;;;;;;;5048612;28;19932;-72
2021/08/11 01:13:21;;;;;;;;;;;;;;;;;;5054321;28;20009;-72
2021/08/11 01:15:48;;;;;;;;;;;;;;;;;;5049555;28;19932;-71
2021/08/11 01:18:15;;;;;;;;;;;;;;;;;;5046117;28;19925;-72
2021/08/11 01:20:42;;;;;;;;;;;;;;;;;;5051678;28;19924;-72
2021/08/11 01:23:09;;;;;;;;;;;;;;;;;;5051588;28;19925;-72
2021/08/11 01:25:36;;;;;;;;;;;;;;;;;;5051254;28;20306;-71
2021/08/11 01:28:03;;;;;;;;;;;;;;;;;;5046975;28;19928;-71
2021/08/11 01:30:30;;;;;;;;;;;;;;;;;;5049681;28;19924;-74
2021/08/11 01:32:57;;;;;;;;;;;;;;;;;;5051379;28;19939;-71
2021/08/11 01:35:24;;;;;;;;;;;;;;;;;;5051865;28;20308;-72
2021/08/11 01:37:51;;;;;;;;;;;;;;;;;;5046815;28;19947;-72
2021/08/11 01:40:18;;;;;;;;;;;;;;;;;;5049659;28;19931;-73
2021/08/11 01:42:45;;;;;;;;;;;;;;;;;;5049981;28;19924;-72
2021/08/11 01:45:12;;;;;;;;;;;;;;;;;;5046515;28;20023;-72
2021/08/11 01:47:39;;;;;;;;;;;;;;;;;;5048906;28;19951;-72
2021/08/11 01:50:06;;;;;;;;;;;;;;;;;;5048924;28;19932;-72
2021/08/11 01:52:39;;;;;;;;;;;;;;;;;;5044983;28;19928;-71
2021/08/11 01:55:06;;;;;;;;;;;;;;;;;;5049674;28;19925;-71
2021/08/11 01:57:33;;;;;;;;;;;;;;;;;;5047871;28;19925;-72
2021/08/11 02:00:00;;;;;;;;;;;;;;;;;;5048413;28;19932;-72
2021/08/11 02:02:27;;;;;;;;;;;;;;;;;;5048753;28;19925;-72
2021/08/11 02:04:54;;;;;;;;;;;;;;;;;;5052176;28;19925;-72
2021/08/11 02:07:21;;;;;;;;;;;;;;;;;;5051301;28;19932;-71
2021/08/11 02:09:48;;;;;;;;;;;;;;;;;;5049432;28;19933;-72
2021/08/11 02:12:15;;;;;;;;;;;;;;;;;;5050393;28;20377;-72
2021/08/11 02:14:42;;;;;;;;;;;;;;;;;;5042745;28;19925;-72
2021/08/11 02:17:09;;;;;;;;;;;;;;;;;;5045110;28;20608;-71
2021/08/11 02:19:36;;;;;;;;;;;;;;;;;;5047493;28;19929;-71
2021/08/11 02:22:03;;;;;;;;;;;;;;;;;;5046274;28;19935;-71
2021/08/11 02:24:30;;;;;;;;;;;;;;;;;;5049399;28;19925;-72
2021/08/11 02:26:57;;;;;;;;;;;;;;;;;;5049296;28;19939;-72
2021/08/11 02:29:24;;;;;;;;;;;;;;;;;;5047733;28;20393;-73
2021/08/11 02:31:51;;;;;;;;;;;;;;;;;;5050163;28;19948;-72
2021/08/11 02:34:18;;;;;;;;;;;;;;;;;;5052069;28;19925;-73
2021/08/11 02:36:45;;;;;;;;;;;;;;;;;;5049039;28;20024;-72
2021/08/11 02:39:12;;;;;;;;;;;;;;;;;;5049612;28;20385;-72
2021/08/11 02:41:39;;;;;;;;;;;;;;;;;;5050827;28;19932;-71
2021/08/11 02:44:06;;;;;;;;;;;;;;;;;;5040783;28;19933;-73
2021/08/11 02:46:33;;;;;;;;;;;;;;;;;;5043552;28;19933;-72
2021/08/11 02:49:01;;;;;;;;;;;;;;;;;;5042853;28;19925;-72
2021/08/11 02:51:28;;;;;;;;;;;;;;;;;;5047991;28;19933;-72
2021/08/11 02:53:55;;;;;;;;;;;;;;;;;;5050485;28;19924;-72
2021/08/11 02:56:22;;;;;;;;;;;;;;;;;;5045677;28;19925;-72
2021/08/11 02:58:49;;;;;;;;;;;;;;;;;;5050114;28;20019;-72
2021/08/11 03:01:16;;;;;;;;;;;;;;;;;;5048260;28;20408;-73
2021/08/11 03:03:43;;;;;;;;;;;;;;;;;;5044653;28;20028;-72
2021/08/11 03:06:10;;;;;;;;;;;;;;;;;;5048763;28;20419;-71
2021/08/11 03:08:37;;;;;;;;;;;;;;;;;;5048881;28;19963;-72
2021/08/11 03:11:04;;;;;;;;;;;;;;;;;;5043564;28;20293;-72
2021/08/11 03:13:31;;;;;;;;;;;;;;;;;;5040284;28;19940;-72
2021/08/11 03:15:58;;;;;;;;;;;;;;;;;;5046468;28;19933;-72
2021/08/11 03:18:25;;;;;;;;;;;;;;;;;;5048288;28;19935;-71
2021/08/11 03:20:52;;;;;;;;;;;;;;;;;;5050240;28;19988;-73
2021/08/11 03:23:19;;;;;;;;;;;;;;;;;;5046626;28;19940;-71
2021/08/11 03:25:46;;;;;;;;;;;;;;;;;;5050727;28;19925;-73
2021/08/11 03:28:13;;;;;;;;;;;;;;;;;;5046184;28;19932;-72
2021/08/11 03:30:40;;;;;;;;;;;;;;;;;;5045251;28;19975;-72
2021/08/11 03:33:07;;;;;;;;;;;;;;;;;;5047909;28;19924;-73
2021/08/11 03:35:34;;;;;;;;;;;;;;;;;;5051049;28;20289;-72
2021/08/11 03:38:01;;;;;;;;;;;;;;;;;;5043839;28;20363;-73
2021/08/11 03:40:27;;;;;;;;;;;;;;;;;;5045535;28;20011;-73
2021/08/11 03:42:54;;;;;;;;;;;;;;;;;;5049691;28;20304;-73
2021/08/11 03:45:21;;;;;;;;;;;;;;;;;;5049277;28;20379;-73
2021/08/11 03:47:48;;;;;;;;;;;;;;;;;;5048971;28;19933;-72
2021/08/11 03:50:15;;;;;;;;;;;;;;;;;;5037707;28;19929;-72
2021/08/11 03:52:42;;;;;;;;;;;;;;;;;;5047931;28;19929;-73
2021/08/11 03:55:09;;;;;;;;;;;;;;;;;;5044575;28;20316;-73
2021/08/11 03:57:36;;;;;;;;;;;;;;;;;;5048593;28;20376;-73
2021/08/11 04:00:03;;;;;;;;;;;;;;;;;;5040535;28;19932;-73
2021/08/11 04:02:30;;;;;;;;;;;;;;;;;;5036853;28;19925;-73
2021/08/11 04:04:57;;;;;;;;;;;;;;;;;;5047914;28;20377;-72
2021/08/11 04:07:24;;;;;;;;;;;;;;;;;;5046463;28;19928;-73
2021/08/11 04:09:51;;;;;;;;;;;;;;;;;;5047909;28;19931;-73
2021/08/11 04:12:18;;;;;;;;;;;;;;;;;;5049295;28;19925;-74
2021/08/11 04:14:45;;;;;;;;;;;;;;;;;;5044261;28;19956;-74
2021/08/11 04:17:12;;;;;;;;;;;;;;;;;;5046738;28;19925;-73
2021/08/11 04:19:39;;;;;;;;;;;;;;;;;;5050287;28;19925;-74
2021/08/11 04:22:06;;;;;;;;;;;;;;;;;;5053770;28;19929;-72
2021/08/11 04:24:33;;;;;;;;;;;;;;;;;;5050519;28;19931;-75
2021/08/11 04:27:00;;;;;;;;;;;;;;;;;;5050356;28;20897;-73
2021/08/11 04:29:27;;;;;;;;;;;;;;;;;;5047128;28;19925;-74
2021/08/11 04:31:54;;;;;;;;;;;;;;;;;;5052351;28;19925;-72
2021/08/11 04:34:20;;;;;;;;;;;;;;;;;;5048566;28;19932;-72
2021/08/11 04:36:47;;;;;;;;;;;;;;;;;;5046784;28;19931;-77
2021/08/11 04:39:14;;;;;;;;;;;;;;;;;;5048474;28;19929;-73
2021/08/11 04:41:41;;;;;;;;;;;;;;;;;;5048542;28;19942;-74
2021/08/11 04:44:10;;;;;;;;;;;;;;;;;;5048025;28;19931;-73
2021/08/11 04:46:37;;;;;;;;;;;;;;;;;;5049192;28;19933;-73
2021/08/11 04:49:04;;;;;;;;;;;;;;;;;;5047827;28;20388;-73
2021/08/11 04:51:31;;;;;;;;;;;;;;;;;;5045425;28;19991;-73
2021/08/11 04:53:58;;;;;;;;;;;;;;;;;;5051448;28;20365;-72
2021/08/11 04:56:25;;;;;;;;;;;;;;;;;;5045924;28;19929;-73
2021/08/11 04:58:52;;;;;;;;;;;;;;;;;;5053432;28;19946;-73
2021/08/11 05:01:19;;;;;;;;;;;;;;;;;;5046993;28;20000;-73
2021/08/11 05:03:46;;;;;;;;;;;;;;;;;;5050583;28;19925;-74
2021/08/11 05:06:13;;;;;;;;;;;;;;;;;;5049445;28;19932;-73
2021/08/11 05:08:40;;;;;;;;;;;;;;;;;;5051724;28;19936;-73
2021/08/11 05:11:10;;;;;;;;;;;;;;;;;;5051080;28;19925;-73
2021/08/11 05:13:37;;;;;;;;;;;;;;;;;;5048669;28;19925;-73
2021/08/11 05:16:04;;;;;;;;;;;;;;;;;;5050417;28;19929;-73
2021/08/11 05:18:31;;;;;;;;;;;;;;;;;;5049547;28;20407;-73
2021/08/11 05:20:58;;;;;;;;;;;;;;;;;;5046269;28;20030;-73
2021/08/11 05:23:26;;;;;;;;;;;;;;;;;;5050020;28;19925;-72
2021/08/11 05:25:53;;;;;;;;;;;;;;;;;;5048193;28;20297;-72
2021/08/11 05:28:20;;;;;;;;;;;;;;;;;;5044577;28;19933;-74
2021/08/11 05:30:47;;;;;;;;;;;;;;;;;;5043906;28;19925;-73
2021/08/11 05:33:14;;;;;;;;;;;;;;;;;;5048951;28;19983;-73
2021/08/11 05:35:41;;;;;;;;;;;;;;;;;;5048252;28;20308;-74
2021/08/11 05:38:08;;;;;;;;;;;;;;;;;;5051104;28;19933;-73
2021/08/11 05:40:35;;;;;;;;;;;;;;;;;;5050383;28;19931;-74
2021/08/11 05:43:02;;;;;;;;;;;;;;;;;;5047978;28;19931;-74
2021/08/11 05:45:29;;;;;;;;;;;;;;;;;;5049062;28;19940;-75
2021/08/11 05:47:56;;;;;;;;;;;;;;;;;;5051041;28;19932;-73
2021/08/11 05:50:24;;;;;;;;;;;;;;;;;;5046465;28;19935;-74
2021/08/11 05:52:51;;;;;;;;;;;;;;;;;;5043693;28;19973;-73
2021/08/11 05:55:18;;;;;;;;;;;;;;;;;;5047750;28;19925;-73
2021/08/11 05:57:45;;;;;;;;;;;;;;;;;;5045814;28;19951;-73
2021/08/11 06:00:12;;;;;;;;;;;;;;;;;;5049982;28;19931;-74
2021/08/11 06:02:39;;;;;;;;;;;;;;;;;;5046912;28;20381;-73
2021/08/11 06:05:06;;;;;;;;;;;;;;;;;;5047126;28;19973;-74
2021/08/11 06:07:33;;;;;;;;;;;;;;;;;;5051645;28;19931;-73
2021/08/11 06:10:00;;;;;;;;;;;;;;;;;;5044057;28;19925;-75
2021/08/11 06:12:27;;;;;;;;;;;;;;;;;;5048923;28;19932;-73
2021/08/11 06:14:54;;;;;;;;;;;;;;;;;;5047689;28;19929;-73
2021/08/11 06:17:21;;;;;;;;;;;;;;;;;;5051249;28;19931;-73
2021/08/11 06:19:48;;;;;;;;;;;;;;;;;;5051357;28;19931;-72
2021/08/11 06:22:15;;;;;;;;;;;;;;;;;;5040873;28;20316;-72
2021/08/11 06:24:42;;;;;;;;;;;;;;;;;;5048682;28;19933;-72
2021/08/11 06:27:09;;;;;;;;;;;;;;;;;;5047826;28;19995;-73
2021/08/11 06:29:36;;;;;;;;;;;;;;;;;;5048624;28;19929;-73
2021/08/11 06:32:03;;;;;;;;;;;;;;;;;;5040999;28;19925;-70
2021/08/11 06:34:30;;;;;;;;;;;;;;;;;;5034438;28;19933;-69
2021/08/11 06:36:57;;;;;;;;;;;;;;;;;;5036897;28;19929;-70
2021/08/11 06:39:24;;;;;;;;;;;;;;;;;;5045763;28;20027;-70
2021/08/11 06:41:51;;;;;;;;;;;;;;;;;;5047680;28;20364;-70
2021/08/11 06:44:18;;;;;;;;;;;;;;;;;;5038144;28;19933;-70
2021/08/11 06:46:45;;;;;;;;;;;;;;;;;;5042680;28;20300;-70
2021/08/11 06:49:12;;;;;;;;;;;;;;;;;;5048172;28;19935;-70
2021/08/11 06:51:39;;;;;;;;;;;;;;;;;;5045226;28;19939;-70
2021/08/11 06:54:10;;;;;;;;;;;;;;;;;;5046019;28;19989;-70
2021/08/11 06:56:37;;;;;;;;;;;;;;;;;;5044546;28;20008;-70
2021/08/11 06:59:04;;;;;;;;;;;;;;;;;;5041987;28;20449;-70
2021/08/11 07:01:31;;;;;;;;;;;;;;;;;;5045699;28;20015;-70
2021/08/11 07:03:58;;;;;;;;;;;;;;;;;;5049778;28;20019;-69
2021/08/11 07:06:25;;;;;;;;;;;;;;;;;;5043873;28;20023;-69
2021/08/11 07:08:52;;;;;;;;;;;;;;;;;;5045690;28;19932;-70
2021/08/11 07:11:18;;;;;;;;;;;;;;;;;;5050369;28;20278;-69
2021/08/11 07:13:45;;;;;;;;;;;;;;;;;;5049157;28;20118;-67
2021/08/11 07:16:12;;;;;;;;;;;;;;;;;;5048956;28;19931;-67
2021/08/11 07:18:39;;;;;;;;;;;;;;;;;;5054778;28;20007;-68
2021/08/11 07:21:06;;;;;;;;;;;;;;;;;;5042165;28;20173;-68
2021/08/11 07:23:33;;;;;;;;;;;;;;;;;;5036617;28;19925;-68
2021/08/11 07:26:00;;;;;;;;;;;;;;;;;;5035338;28;19925;-68
2021/08/11 07:28:27;;;;;;;;;;;;;;;;;;5047160;28;19925;-68
2021/08/11 07:30:54;;;;;;;;;;;;;;;;;;5048485;28;20035;-68
2021/08/11 07:33:23;;;;;;;;;;;;;;;;;;5035828;28;20429;-69
2021/08/11 07:35:50;;;;;;;;;;;;;;;;;;5047241;28;20019;-68
2021/08/11 07:38:17;;;;;;;;;;;;;;;;;;5041255;28;20324;-69
2021/08/11 07:40:44;;;;;;;;;;;;;;;;;;5037730;28;19932;-69
2021/08/11 07:43:11;;;;;;;;;;;;;;;;;;5044814;28;20403;-70
2021/08/11 07:45:38;;;;;;;;;;;;;;;;;;5028193;28;19929;-70
2021/08/11 07:48:05;;;;;;;;;;;;;;;;;;5043946;28;19929;-72
2021/08/11 07:50:32;;;;;;;;;;;;;;;;;;5044500;28;19936;-71
2021/08/11 07:52:59;;;;;;;;;;;;;;;;;;5037709;28;19964;-71
2021/08/11 07:55:26;;;;;;;;;;;;;;;;;;5047392;28;19932;-70
2021/08/11 07:57:53;;;;;;;;;;;;;;;;;;5054272;28;19924;-71
2021/08/11 08:00:21;;;;;;;;;;;;;;;;;;5053953;28;19924;-70
2021/08/11 08:02:48;;;;;;;;;;;;;;;;;;5049910;28;19924;-70
2021/08/11 08:05:15;;;;;;;;;;;;;;;;;;5051274;28;19928;-71
2021/08/11 08:07:42;;;;;;;;;;;;;;;;;;5053574;28;20498;-70
2021/08/11 08:10:09;;;;;;;;;;;;;;;;;;5047413;28;19931;-71
2021/08/11 08:12:38;;;;;;;;;;;;;;;;;;5048604;28;20278;-72
2021/08/11 08:15:05;;;;;;;;;;;;;;;;;;5050696;28;20385;-70
2021/08/11 08:17:32;;;;;;;;;;;;;;;;;;5049844;28;19924;-70
2021/08/11 08:19:58;;;;;;;;;;;;;;;;;;5048715;28;20317;-68
2021/08/11 08:22:25;;;;;;;;;;;;;;;;;;5048084;28;20259;-71
2021/08/11 08:24:55;;;;;;;;;;;;;;;;;;5050171;28;19929;-71
2021/08/11 08:27:22;;;;;;;;;;;;;;;;;;5047242;28;19932;-70
2021/08/11 08:29:49;;;;;;;;;;;;;;;;;;5041845;28;19925;-71
2021/08/11 08:32:16;;;;;;;;;;;;;;;;;;5046384;28;19932;-72
2021/08/11 08:34:43;;;;;;;;;;;;;;;;;;5042714;28;19925;-74
2021/08/11 08:37:10;;;;;;;;;;;;;;;;;;5048574;28;19925;-76
2021/08/11 08:39:37;;;;;;;;;;;;;;;;;;5045279;28;20292;-75
2021/08/11 08:42:04;;;;;;;;;;;;;;;;;;5039966;28;19935;-74
2021/08/11 08:44:31;;;;;;;;;;;;;;;;;;5051571;28;19971;-74
2021/08/11 08:46:58;;;;;;;;;;;;;;;;;;5040183;28;19924;-74
2021/08/11 08:49:26;;;;;;;;;;;;;;;;;;5039732;28;20002;-74
2021/08/11 08:51:54;;;;;;;;;;;;;;;;;;5043796;28;19944;-73
2021/08/11 08:54:21;;;;;;;;;;;;;;;;;;5043909;28;20020;-72
2021/08/11 08:56:48;;;;;;;;;;;;;;;;;;5039109;28;20020;-74
2021/08/11 08:59:15;;;;;;;;;;;;;;;;;;5038444;28;19935;-77
2021/08/11 09:01:42;;;;;;;;;;;;;;;;;;5044489;28;19932;-73
2021/08/11 09:04:09;;;;;;;;;;;;;;;;;;5047454;28;19925;-73
2021/08/11 09:06:35;;;;;;;;;;;;;;;;;;5050928;28;19956;-72
2021/08/11 09:09:02;;;;;;;;;;;;;;;;;;5055321;28;19925;-73
2021/08/11 09:11:29;;;;;;;;;;;;;;;;;;5052579;28;20034;-73
2021/08/11 09:13:56;;;;;;;;;;;;;;;;;;5053564;28;19931;-73
2021/08/11 09:16:23;;;;;;;;;;;;;;;;;;5052236;28;20023;-71
2021/08/11 09:18:50;;;;;;;;;;;;;;;;;;5047046;28;19925;-72
2021/08/11 09:21:17;;;;;;;;;;;;;;;;;;5049272;28;19942;-73
2021/08/11 09:23:44;;;;;;;;;;;;;;;;;;5049071;28;19933;-73
2021/08/11 09:26:11;;;;;;;;;;;;;;;;;;5051358;28;19924;-72
2021/08/11 09:28:38;;;;;;;;;;;;;;;;;;5047405;28;19929;-73
2021/08/11 09:31:05;;;;;;;;;;;;;;;;;;5048187;28;19924;-73
2021/08/11 09:33:32;;;;;;;;;;;;;;;;;;5051358;28;19924;-73
2021/08/11 09:35:59;;;;;;;;;;;;;;;;;;5038633;28;20289;-72
2021/08/11 09:38:26;;;;;;;;;;;;;;;;;;5052070;28;19925;-74
2021/08/11 09:40:53;;;;;;;;;;;;;;;;;;5057203;22;19913;-67
2021/08/11 09:43:20;;;;;;;;;;;;;;;;;;5044499;28;19925;-68
2021/08/11 09:45:47;;;;;;;;;;;;;;;;;;5028499;28;19932;-68
2021/08/11 09:48:14;;;;;;;;;;;;;;;;;;5016487;28;19937;-68
2021/08/11 09:50:44;;;;;;;;;;;;;;;;;;5020805;28;19933;-69
2021/08/11 09:53:11;;;;;;;;;;;;;;;;;;5033288;28;19929;-68
2021/08/11 09:55:38;;;;;;;;;;;;;;;;;;5031369;28;19926;-67
2021/08/11 09:58:05;;;;;;;;;;;;;;;;;;5020037;28;20008;-67
2021/08/11 10:00:32;;;;;;;;;;;;;;;;;;5029315;28;20134;-68
2021/08/11 10:02:59;;;;;;;;;;;;;;;;;;5022608;28;19929;-68
2021/08/11 10:05:26;;;;;;;;;;;;;;;;;;5026488;28;19936;-68
2021/08/11 10:07:53;;;;;;;;;;;;;;;;;;5026258;28;20424;-67
2021/08/11 10:10:20;;;;;;;;;;;;;;;;;;5033696;28;19929;-67
2021/08/11 10:12:49;;;;;;;;;;;;;;;;;;5037702;28;19952;-67
2021/08/11 10:15:16;;;;;;;;;;;;;;;;;;5035465;28;19935;-67
2021/08/11 10:17:43;;;;;;;;;;;;;;;;;;5041482;28;19926;-67
2021/08/11 10:20:10;;;;;;;;;;;;;;;;;;5041294;28;19996;-67
2021/08/11 10:22:37;;;;;;;;;;;;;;;;;;5037370;28;19925;-67
2021/08/11 10:25:04;;;;;;;;;;;;;;;;;;5038723;28;19971;-68
2021/08/11 10:27:31;;;;;;;;;;;;;;;;;;5038028;28;19929;-67
2021/08/11 10:29:58;;;;;;;;;;;;;;;;;;5037426;28;19925;-66
2021/08/11 10:32:25;;;;;;;;;;;;;;;;;;5033551;28;19933;-67
2021/08/11 10:34:51;;;;;;;;;;;;;;;;;;5035284;28;19939;-67
2021/08/11 10:37:18;;;;;;;;;;;;;;;;;;5032502;28;19931;-67
2021/08/11 10:39:46;;;;;;;;;;;;;;;;;;5030260;28;20191;-67
2021/08/11 10:42:14;;;;;;;;;;;;;;;;;;5035687;28;19968;-67
2021/08/11 10:44:41;;;;;;;;;;;;;;;;;;5030542;28;19929;-67
2021/08/11 10:47:08;;;;;;;;;;;;;;;;;;5031437;28;19935;-67
2021/08/11 10:49:35;;;;;;;;;;;;;;;;;;5027794;28;19988;-68
2021/08/11 10:52:02;;;;;;;;;;;;;;;;;;5033332;28;19937;-67
2021/08/11 10:54:29;;;;;;;;;;;;;;;;;;5022748;28;19959;-67
2021/08/11 10:56:56;;;;;;;;;;;;;;;;;;5024972;28;20378;-69
2021/08/11 10:59:23;;;;;;;;;;;;;;;;;;5021014;28;19935;-67
2021/08/11 11:01:50;;;;;;;;;;;;;;;;;;5021490;28;19925;-67
2021/08/11 11:04:17;;;;;;;;;;;;;;;;;;5023285;28;19943;-66
2021/08/11 11:06:44;;;;;;;;;;;;;;;;;;5025601;28;19925;-66
2021/08/11 11:09:11;;;;;;;;;;;;;;;;;;5024238;28;20543;-67
2021/08/11 11:11:38;;;;;;;;;;;;;;;;;;5027030;28;19989;-68
2021/08/11 11:14:05;;;;;;;;;;;;;;;;;;5029046;28;19994;-67
2021/08/11 11:16:32;;;;;;;;;;;;;;;;;;5028318;28;19933;-68
2021/08/11 11:18:59;;;;;;;;;;;;;;;;;;5026615;28;19933;-67
2021/08/11 11:21:26;;;;;;;;;;;;;;;;;;5023387;28;19991;-68
2021/08/11 11:23:53;;;;;;;;;;;;;;;;;;5023667;28;19925;-68
2021/08/11 11:26:21;;;;;;;;;;;;;;;;;;5022741;28;19932;-68
2021/08/11 11:28:48;;;;;;;;;;;;;;;;;;5027967;28;19925;-68
2021/08/11 11:31:15;;;;;;;;;;;;;;;;;;5026460;28;19933;-68
2021/08/11 11:33:42;;;;;;;;;;;;;;;;;;5016800;28;19929;-68
2021/08/11 11:36:09;;;;;;;;;;;;;;;;;;5020160;28;19933;-67
2021/08/11 11:38:36;;;;;;;;;;;;;;;;;;5020246;28;19940;-67
2021/08/11 11:41:03;;;;;;;;;;;;;;;;;;5019819;28;19933;-67
2021/08/11 11:43:30;;;;;;;;;;;;;;;;;;5023010;28;19931;-67
2021/08/11 11:45:57;;;;;;;;;;;;;;;;;;5029666;28;19939;-67
2021/08/11 11:48:24;;;;;;;;;;;;;;;;;;5026043;28;19926;-66
2021/08/11 11:50:51;;;;;;;;;;;;;;;;;;5025353;28;19929;-67
2021/08/11 11:53:18;;;;;;;;;;;;;;;;;;5028343;28;19972;-67
2021/08/11 11:55:45;;;;;;;;;;;;;;;;;;5019203;28;19928;-67
2021/08/11 11:58:13;;;;;;;;;;;;;;;;;;5026675;28;19965;-67
2021/08/11 12:00:40;;;;;;;;;;;;;;;;;;5028742;28;19979;-67
2021/08/11 12:03:07;;;;;;;;;;;;;;;;;;5028168;28;19932;-67
2021/08/11 12:05:34;;;;;;;;;;;;;;;;;;5024649;28;19926;-68
2021/08/11 12:08:00;;;;;;;;;;;;;;;;;;5030287;28;20396;-67
2021/08/11 12:10:27;;;;;;;;;;;;;;;;;;5030713;28;19932;-67
2021/08/11 12:12:58;;;;;;;;;;;;;;;;;;5030361;28;20012;-68
2021/08/11 12:15:25;;;;;;;;;;;;;;;;;;5028812;28;19944;-67
2021/08/11 12:17:55;;;;;;;;;;;;;;;;;;5025864;28;19979;-66
2021/08/11 12:20:22;;;;;;;;;;;;;;;;;;5027182;28;19929;-68
2021/08/11 12:22:49;;;;;;;;;;;;;;;;;;5027585;28;19936;-66
2021/08/11 12:25:16;;;;;;;;;;;;;;;;;;5026301;28;19931;-67
2021/08/11 12:27:43;;;;;;;;;;;;;;;;;;5020777;28;19929;-67
2021/08/11 12:30:10;;;;;;;;;;;;;;;;;;5022154;28;19929;-68
2021/08/11 12:32:37;;;;;;;;;;;;;;;;;;5028003;28;19931;-67
2021/08/11 12:35:04;;;;;;;;;;;;;;;;;;5023204;28;20099;-67
2021/08/11 12:37:31;;;;;;;;;;;;;;;;;;5025935;28;19929;-66
2021/08/11 12:39:58;;;;;;;;;;;;;;;;;;5032661;28;19929;-68
2021/08/11 12:42:25;;;;;;;;;;;;;;;;;;5023171;28;19930;-68
2021/08/11 12:44:52;;;;;;;;;;;;;;;;;;5017905;28;20428;-65
2021/08/11 12:47:19;;;;;;;;;;;;;;;;;;5023214;28;20056;-65
2021/08/11 12:49:49;;;;;;;;;;;;;;;;;;5019699;28;20370;-68
2021/08/11 12:52:17;;;;;;;;;;;;;;;;;;5022829;28;19928;-67
2021/08/11 12:54:44;;;;;;;;;;;;;;;;;;5021087;28;20036;-66
2021/08/11 12:57:11;;;;;;;;;;;;;;;;;;5022612;28;19931;-67
2021/08/11 12:59:38;;;;;;;;;;;;;;;;;;5022016;28;19929;-67
2021/08/11 13:02:05;;;;;;;;;;;;;;;;;;5025012;28;19931;-67
2021/08/11 13:04:32;;;;;;;;;;;;;;;;;;5031075;28;19929;-67
2021/08/11 13:06:59;;;;;;;;;;;;;;;;;;5030221;28;19925;-67
2021/08/11 13:09:26;;;;;;;;;;;;;;;;;;5030918;28;20409;-67
2021/08/11 13:11:53;;;;;;;;;;;;;;;;;;5024579;28;19929;-68
2021/08/11 13:14:20;;;;;;;;;;;;;;;;;;5029618;28;19931;-66
2021/08/11 13:16:47;;;;;;;;;;;;;;;;;;5028426;28;19929;-68
2021/08/11 13:19:13;;;;;;;;;;;;;;;;;;5030059;28;19932;-66
2021/08/11 13:21:40;;;;;;;;;;;;;;;;;;5026525;28;20016;-67
2021/08/11 13:24:07;;;;;;;;;;;;;;;;;;5030003;28;19925;-68
2021/08/11 13:26:34;;;;;;;;;;;;;;;;;;5030285;28;19936;-68
2021/08/11 13:29:01;;;;;;;;;;;;;;;;;;5021303;28;20016;-69
2021/08/11 13:31:28;;;;;;;;;;;;;;;;;;5028087;28;19931;-67
2021/08/11 13:33:55;;;;;;;;;;;;;;;;;;5022069;28;19929;-66
2021/08/11 13:36:23;;;;;;;;;;;;;;;;;;5016319;28;20563;-68
2021/08/11 13:38:50;;;;;;;;;;;;;;;;;;5022499;28;20373;-68
2021/08/11 13:41:17;;;;;;;;;;;;;;;;;;5022943;28;19925;-66
2021/08/11 13:43:44;;;;;;;;;;;;;;;;;;5029206;28;19929;-67
2021/08/11 13:46:10;;;;;;;;;;;;;;;;;;5029546;28;19941;-68
2021/08/11 13:48:37;;;;;;;;;;;;;;;;;;5026377;28;19933;-66
2021/08/11 13:51:04;;;;;;;;;;;;;;;;;;5025445;28;19925;-67
2021/08/11 13:53:31;;;;;;;;;;;;;;;;;;5021836;28;20382;-67
2021/08/11 13:55:58;;;;;;;;;;;;;;;;;;5028389;28;19925;-68
2021/08/11 13:58:27;;;;;;;;;;;;;;;;;;5028309;28;20358;-69
2021/08/11 14:00:54;;;;;;;;;;;;;;;;;;5023355;28;19935;-68
2021/08/11 14:03:21;;;;;;;;;;;;;;;;;;5022290;28;19980;-67
2021/08/11 14:05:48;;;;;;;;;;;;;;;;;;5023318;28;20024;-67
2021/08/11 14:08:15;;;;;;;;;;;;;;;;;;5021456;28;19926;-67
2021/08/11 14:10:42;;;;;;;;;;;;;;;;;;5020557;28;19936;-68
2021/08/11 14:13:09;;;;;;;;;;;;;;;;;;5025046;28;20016;-68
2021/08/11 14:15:36;;;;;;;;;;;;;;;;;;5021161;28;19933;-67
2021/08/11 14:18:03;;;;;;;;;;;;;;;;;;5020069;28;20471;-66
2021/08/11 14:20:30;;;;;;;;;;;;;;;;;;5018878;28;20452;-67
2021/08/11 14:22:57;;;;;;;;;;;;;;;;;;5021639;28;19943;-68
2021/08/11 14:25:24;;;;;;;;;;;;;;;;;;5020736;28;19929;-68
2021/08/11 14:27:50;;;;;;;;;;;;;;;;;;5012626;28;19933;-66
2021/08/11 14:30:18;;;;;;;;;;;;;;;;;;5013803;28;20408;-66
2021/08/11 14:32:46;;;;;;;;;;;;;;;;;;5016427;28;19937;-67
2021/08/11 14:35:13;;;;;;;;;;;;;;;;;;5026050;28;20403;-66
2021/08/11 14:37:40;;;;;;;;;;;;;;;;;;5020580;28;19926;-66
2021/08/11 14:40:07;;;;;;;;;;;;;;;;;;5018219;28;19931;-66
2021/08/11 14:42:34;;;;;;;;;;;;;;;;;;5023481;28;20027;-67
2021/08/11 14:45:01;;;;;;;;;;;;;;;;;;5018938;28;20015;-67
2021/08/11 14:47:28;;;;;;;;;;;;;;;;;;5025685;28;19948;-66
2021/08/11 14:49:55;;;;;;;;;;;;;;;;;;5025627;28;19957;-67
2021/08/11 14:52:22;;;;;;;;;;;;;;;;;;5025148;28;19925;-68
2021/08/11 14:54:50;;;;;;;;;;;;;;;;;;5022179;28;19925;-68
2021/08/11 14:57:17;;;;;;;;;;;;;;;;;;5022344;28;20379;-68
2021/08/11 14:59:44;;;;;;;;;;;;;;;;;;5026331;28;19940;-68
2021/08/11 15:02:11;;;;;;;;;;;;;;;;;;5022895;28;19925;-67
2021/08/11 15:04:38;;;;;;;;;;;;;;;;;;5024064;28;19951;-68
2021/08/11 15:07:05;;;;;;;;;;;;;;;;;;5026392;28;19929;-68
2021/08/11 15:09:32;;;;;;;;;;;;;;;;;;5027229;28;19931;-67
2021/08/11 15:11:59;;;;;;;;;;;;;;;;;;5023151;28;19925;-68
2021/08/11 15:14:26;;;;;;;;;;;;;;;;;;5020414;28;20317;-67
2021/08/11 15:16:53;;;;;;;;;;;;;;;;;;5027515;28;19936;-66
2021/08/11 15:19:20;;;;;;;;;;;;;;;;;;5022412;28;19925;-67
2021/08/11 15:21:47;;;;;;;;;;;;;;;;;;5026196;28;19929;-70
2021/08/11 15:24:13;;;;;;;;;;;;;;;;;;5021610;28;19933;-68
2021/08/11 15:26:40;;;;;;;;;;;;;;;;;;5026830;28;19984;-66
2021/08/11 15:29:07;;;;;;;;;;;;;;;;;;5022405;28;20345;-68
2021/08/11 15:31:34;;;;;;;;;;;;;;;;;;5024863;28;19925;-66
2021/08/11 15:34:01;;;;;;;;;;;;;;;;;;5025627;28;19932;-65
2021/08/11 15:36:28;;;;;;;;;;;;;;;;;;5026187;28;19937;-68
2021/08/11 15:38:55;;;;;;;;;;;;;;;;;;5023781;28;19937;-68
2021/08/11 15:41:22;;;;;;;;;;;;;;;;;;5024645;28;20103;-67
2021/08/11 15:43:49;;;;;;;;;;;;;;;;;;5027475;28;20373;-65
2021/08/11 15:46:16;;;;;;;;;;;;;;;;;;5023152;28;19925;-66
2021/08/11 15:48:43;;;;;;;;;;;;;;;;;;5025594;28;19939;-68
2021/08/11 15:51:10;;;;;;;;;;;;;;;;;;5024598;28;19926;-66
2021/08/11 15:53:37;;;;;;;;;;;;;;;;;;5026465;28;20095;-65
2021/08/11 15:56:04;;;;;;;;;;;;;;;;;;5026903;28;19932;-68
2021/08/11 15:58:31;;;;;;;;;;;;;;;;;;5028085;28;19934;-66
2021/08/11 16:00:58;;;;;;;;;;;;;;;;;;5027360;28;20423;-66
2021/08/11 16:03:25;;;;;;;;;;;;;;;;;;5023625;28;19929;-67
2021/08/11 16:05:52;;;;;;;;;;;;;;;;;;5027801;28;19956;-67
2021/08/11 16:08:19;;;;;;;;;;;;;;;;;;5019983;28;20013;-67
2021/08/11 16:10:46;;;;;;;;;;;;;;;;;;5021442;28;19925;-68
2021/08/11 16:13:13;;;;;;;;;;;;;;;;;;5025085;28;20096;-67
2021/08/11 16:15:40;;;;;;;;;;;;;;;;;;5030012;28;19929;-66
2021/08/11 16:18:07;;;;;;;;;;;;;;;;;;5032308;28;20015;-66
2021/08/11 16:20:34;;;;;;;;;;;;;;;;;;5030960;28;20344;-68
2021/08/11 16:23:01;;;;;;;;;;;;;;;;;;5029373;28;19932;-66
2021/08/11 16:25:28;;;;;;;;;;;;;;;;;;5028280;28;20433;-65
2021/08/11 16:27:55;;;;;;;;;;;;;;;;;;5029793;28;20316;-67
2021/08/11 16:30:21;;;;;;;;;;;;;;;;;;5025679;28;20400;-68
2021/08/11 16:32:48;;;;;;;;;;;;;;;;;;5032309;28;20012;-66
2021/08/11 16:35:15;;;;;;;;;;;;;;;;;;5032213;28;19924;-67
2021/08/11 16:37:43;;;;;;;;;;;;;;;;;;5029312;28;19937;-65
2021/08/11 16:40:11;;;;;;;;;;;;;;;;;;5030172;28;19979;-67
2021/08/11 16:42:38;;;;;;;;;;;;;;;;;;5028520;28;19925;-68
2021/08/11 16:45:05;;;;;;;;;;;;;;;;;;5027185;28;19928;-67